Wetterdaten: Woche 17.07.06 - 23.07.06 (KW29)
Datum Zeit Temperatur Luftfeuchte Luftdruck Niederschlag Wind Richtung Sonnenschein UV-Strahlung Solar Taupunkt Windchill Windben
17.07.2006 00:00 18.1 C 64 % 1022.8 hPa 0.0 l/m 1.3 km/h (1 Bft) O-SO 0.00 h 0.0 UV-I 0 W/m 11.3 C 18.1 C 2.1 km/h (1 Bft)
17.07.2006 01:00 17.1 C 69 % 1022.5 hPa 0.0 l/m 1.8 km/h (1 Bft) O-SO 0.00 h 0.0 UV-I 0 W/m 11.3 C 17.1 C 3.1 km/h (1 Bft)
17.07.2006 02:00 16.2 C 71 % 1022.2 hPa 0.0 l/m 2.9 km/h (1 Bft) O 0.00 h 0.0 UV-I 0 W/m 10.9 C 16.2 C 4.2 km/h (1 Bft)
17.07.2006 03:00 15.3 C 75 % 1022.3 hPa 0.0 l/m 2.6 km/h (1 Bft) O 0.00 h 0.0 UV-I 0 W/m 10.9 C 15.3 C 4.0 km/h (1 Bft)
17.07.2006 04:00 14.9 C 76 % 1022.3 hPa 0.0 l/m 1.5 km/h (1 Bft) O 0.00 h 0.0 UV-I 0 W/m 10.7 C 14.9 C 2.7 km/h (1 Bft)
17.07.2006 05:00 14.1 C 79 % 1022.5 hPa 0.0 l/m 1.5 km/h (1 Bft) O 0.02 h 0.0 UV-I 7 W/m 10.5 C 14.1 C 2.8 km/h (1 Bft)
17.07.2006 06:00 13.6 C 81 % 1022.5 hPa 0.0 l/m 0.2 km/h (0 Bft) O 0.00 h 0.0 UV-I 17 W/m 10.4 C 13.6 C 1.3 km/h (1 Bft)
17.07.2006 07:00 15.3 C 78 % 1022.4 hPa 0.0 l/m 0.2 km/h (0 Bft) O 0.75 h 0.7 UV-I 158 W/m 11.5 C 15.3 C 0.6 km/h (0 Bft)
17.07.2006 08:00 18.9 C 63 % 1022.3 hPa 0.0 l/m 1.6 km/h (1 Bft) O 1.00 h 1.4 UV-I 341 W/m 11.7 C 18.9 C 3.5 km/h (1 Bft)
17.07.2006 09:00 20.8 C 55 % 1022.3 hPa 0.0 l/m 3.3 km/h (1 Bft) SO 1.00 h 2.8 UV-I 501 W/m 11.3 C 20.8 C 6.0 km/h (2 Bft)
17.07.2006 10:00 22.6 C 50 % 1022.2 hPa 0.0 l/m 4.1 km/h (1 Bft) O-SO 1.00 h 4.6 UV-I 648 W/m 11.7 C 22.6 C 7.4 km/h (2 Bft)
17.07.2006 11:00 24.2 C 46 % 1022.0 hPa 0.0 l/m 6.9 km/h (2 Bft) O-SO 1.00 h 6.4 UV-I 763 W/m 12.0 C 24.2 C 11.1 km/h (2 Bft)
17.07.2006 12:00 25.9 C 44 % 1021.7 hPa 0.0 l/m 6.0 km/h (2 Bft) O-SO 1.00 h 7.6 UV-I 837 W/m 12.8 C 25.9 C 9.9 km/h (2 Bft)
17.07.2006 13:00 27.3 C 38 % 1021.6 hPa 0.0 l/m 6.3 km/h (2 Bft) O-SO 1.00 h 8.0 UV-I 866 W/m 11.8 C 27.3 C 10.7 km/h (2 Bft)
17.07.2006 14:00 28.5 C 37 % 1021.1 hPa 0.0 l/m 7.8 km/h (2 Bft) O-SO 1.00 h 7.5 UV-I 845 W/m 12.2 C 28.5 C 12.9 km/h (3 Bft)
17.07.2006 15:00 29.0 C 34 % 1020.6 hPa 0.0 l/m 10.8 km/h (2 Bft) O-SO 1.00 h 6.2 UV-I 772 W/m 11.3 C 29.0 C 16.2 km/h (3 Bft)
17.07.2006 16:00 29.3 C 32 % 1020.2 hPa 0.0 l/m 10.7 km/h (2 Bft) O-SO 1.00 h 4.5 UV-I 661 W/m 11.0 C 29.3 C 16.8 km/h (3 Bft)
17.07.2006 17:00 29.4 C 29 % 1019.9 hPa 0.0 l/m 10.8 km/h (2 Bft) O-SO 1.00 h 2.8 UV-I 525 W/m 9.6 C 29.4 C 17.3 km/h (3 Bft)
17.07.2006 18:00 29.0 C 28 % 1019.8 hPa 0.0 l/m 9.4 km/h (2 Bft) O-SO 1.00 h 1.4 UV-I 369 W/m 8.6 C 29.0 C 14.9 km/h (3 Bft)
17.07.2006 19:00 28.3 C 28 % 1019.9 hPa 0.0 l/m 6.2 km/h (2 Bft) O-SO 1.00 h 0.7 UV-I 206 W/m 8.1 C 28.3 C 10.3 km/h (2 Bft)
17.07.2006 20:00 26.9 C 30 % 1020.0 hPa 0.0 l/m 1.9 km/h (1 Bft) O 0.70 h 0.0 UV-I 65 W/m 7.9 C 26.9 C 4.4 km/h (1 Bft)
17.07.2006 21:00 24.7 C 36 % 1020.4 hPa 0.0 l/m 3.1 km/h (1 Bft) N-NO 0.05 h 0.0 UV-I 10 W/m 8.7 C 24.7 C 6.5 km/h (2 Bft)
17.07.2006 22:00 22.8 C 42 % 1020.7 hPa 0.0 l/m 1.9 km/h (1 Bft) N 0.00 h 0.0 UV-I 0 W/m 9.1 C 22.8 C 4.3 km/h (1 Bft)
17.07.2006 23:00 20.5 C 51 % 1020.8 hPa 0.0 l/m 0.3 km/h (0 Bft) N 0.00 h 0.0 UV-I 0 W/m 9.9 C 20.5 C 1.2 km/h (1 Bft)
18.07.2006 00:00 18.3 C 60 % 1020.9 hPa 0.0 l/m 1.0 km/h (0 Bft) N 0.00 h 0.0 UV-I 0 W/m 10.3 C 18.3 C 2.1 km/h (1 Bft)
18.07.2006 01:00 17.0 C 65 % 1020.7 hPa 0.0 l/m 2.6 km/h (1 Bft) O 0.00 h 0.0 UV-I 0 W/m 10.3 C 17.0 C 3.8 km/h (1 Bft)
18.07.2006 02:00 15.7 C 68 % 1020.5 hPa 0.0 l/m 1.7 km/h (1 Bft) O 0.00 h 0.0 UV-I 0 W/m 9.9 C 15.7 C 3.1 km/h (1 Bft)
18.07.2006 03:00 15.3 C 69 % 1020.2 hPa 0.0 l/m 1.2 km/h (1 Bft) O 0.00 h 0.0 UV-I 0 W/m 9.7 C 15.3 C 2.4 km/h (1 Bft)
18.07.2006 04:00 13.8 C 76 % 1020.4 hPa 0.0 l/m 1.9 km/h (1 Bft) SO 0.00 h 0.0 UV-I 0 W/m 9.6 C 13.8 C 2.7 km/h (1 Bft)
18.07.2006 05:00 13.3 C 78 % 1020.6 hPa 0.0 l/m 1.8 km/h (1 Bft) O-SO 0.00 h 0.0 UV-I 6 W/m 9.6 C 13.3 C 3.1 km/h (1 Bft)
18.07.2006 06:00 13.1 C 80 % 1020.8 hPa 0.0 l/m 1.9 km/h (1 Bft) O-SO 0.00 h 0.0 UV-I 17 W/m 9.8 C 13.1 C 2.9 km/h (1 Bft)
18.07.2006 07:00 14.9 C 76 % 1020.8 hPa 0.0 l/m 0.5 km/h (0 Bft) SO 0.75 h 0.7 UV-I 153 W/m 10.8 C 14.9 C 1.1 km/h (1 Bft)
18.07.2006 08:00 18.1 C 69 % 1020.7 hPa 0.0 l/m 0.8 km/h (0 Bft) SO 1.00 h 1.3 UV-I 326 W/m 12.3 C 18.1 C 2.2 km/h (1 Bft)
18.07.2006 09:00 21.5 C 54 % 1020.9 hPa 0.0 l/m 3.2 km/h (1 Bft) O-SO 0.98 h 2.7 UV-I 487 W/m 11.8 C 21.5 C 5.8 km/h (2 Bft)
18.07.2006 10:00 23.6 C 49 % 1020.8 hPa 0.0 l/m 4.8 km/h (1 Bft) O-SO 1.00 h 4.4 UV-I 638 W/m 12.3 C 23.6 C 7.3 km/h (2 Bft)
18.07.2006 11:00 25.6 C 45 % 1020.5 hPa 0.0 l/m 3.8 km/h (1 Bft) O-SO 1.00 h 6.1 UV-I 749 W/m 12.6 C 25.6 C 6.6 km/h (2 Bft)
18.07.2006 12:00 27.4 C 40 % 1020.0 hPa 0.0 l/m 5.4 km/h (1 Bft) O-SO 1.00 h 7.4 UV-I 827 W/m 12.6 C 27.4 C 8.2 km/h (2 Bft)
18.07.2006 13:00 29.2 C 34 % 1019.5 hPa 0.0 l/m 6.1 km/h (2 Bft) SO 1.00 h 7.8 UV-I 852 W/m 11.7 C 29.2 C 9.5 km/h (2 Bft)
18.07.2006 14:00 30.5 C 32 % 1019.3 hPa 0.0 l/m 6.8 km/h (2 Bft) O-SO 1.00 h 7.3 UV-I 828 W/m 12.1 C 30.5 C 10.3 km/h (2 Bft)
18.07.2006 15:00 31.4 C 28 % 1018.8 hPa 0.0 l/m 5.7 km/h (1 Bft) O-SO 1.00 h 6.1 UV-I 765 W/m 10.6 C 31.4 C 9.0 km/h (2 Bft)
18.07.2006 16:00 31.8 C 26 % 1018.6 hPa 0.0 l/m 6.6 km/h (2 Bft) O-SO 1.00 h 4.5 UV-I 657 W/m 9.7 C 31.8 C 10.2 km/h (2 Bft)
18.07.2006 17:00 31.9 C 23 % 1018.3 hPa 0.0 l/m 7.3 km/h (2 Bft) O-SO 1.00 h 2.8 UV-I 524 W/m 8.0 C 31.9 C 10.8 km/h (2 Bft)
18.07.2006 18:00 31.7 C 22 % 1018.1 hPa 0.0 l/m 6.1 km/h (2 Bft) O-SO 1.00 h 1.4 UV-I 355 W/m 7.3 C 31.7 C 9.1 km/h (2 Bft)
18.07.2006 19:00 30.8 C 23 % 1017.9 hPa 0.0 l/m 6.6 km/h (2 Bft) O-SO 1.00 h 0.6 UV-I 193 W/m 7.5 C 30.8 C 9.3 km/h (2 Bft)
18.07.2006 20:00 28.6 C 29 % 1018.2 hPa 0.0 l/m 4.2 km/h (1 Bft) O-SO 0.45 h 0.0 UV-I 55 W/m 8.9 C 28.6 C 5.7 km/h (1 Bft)
18.07.2006 21:00 24.6 C 44 % 1018.7 hPa 0.0 l/m 2.9 km/h (1 Bft) O-SO 0.03 h 0.0 UV-I 8 W/m 11.6 C 24.6 C 4.1 km/h (1 Bft)
18.07.2006 22:00 22.3 C 53 % 1019.4 hPa 0.0 l/m 1.5 km/h (1 Bft) O 0.00 h 0.0 UV-I 0 W/m 12.1 C 22.3 C 2.7 km/h (1 Bft)
18.07.2006 23:00 20.3 C 60 % 1019.5 hPa 0.0 l/m 1.2 km/h (1 Bft) O 0.00 h 0.0 UV-I 0 W/m 12.3 C 20.3 C 2.4 km/h (1 Bft)
19.07.2006 00:00 19.4 C 64 % 1019.7 hPa 0.0 l/m 2.1 km/h (1 Bft) O 0.00 h 0.0 UV-I 0 W/m 12.4 C 19.4 C 3.3 km/h (1 Bft)
19.07.2006 01:00 18.1 C 69 % 1019.5 hPa 0.0 l/m 2.0 km/h (1 Bft) O 0.00 h 0.0 UV-I 0 W/m 12.3 C 18.1 C 3.3 km/h (1 Bft)
19.07.2006 02:00 17.3 C 72 % 1019.6 hPa 0.0 l/m 2.1 km/h (1 Bft) O 0.00 h 0.0 UV-I 0 W/m 12.1 C 17.3 C 3.2 km/h (1 Bft)
19.07.2006 03:00 16.2 C 76 % 1019.7 hPa 0.0 l/m 2.1 km/h (1 Bft) O 0.00 h 0.0 UV-I 0 W/m 12.0 C 16.2 C 3.1 km/h (1 Bft)
19.07.2006 04:00 15.6 C 78 % 1019.9 hPa 0.0 l/m 1.4 km/h (1 Bft) O-SO 0.00 h 0.0 UV-I 0 W/m 11.7 C 15.6 C 2.5 km/h (1 Bft)
19.07.2006 05:00 14.7 C 80 % 1020.2 hPa 0.0 l/m 2.4 km/h (1 Bft) O 0.00 h 0.0 UV-I 7 W/m 11.4 C 14.7 C 3.7 km/h (1 Bft)
19.07.2006 06:00 14.6 C 81 % 1020.5 hPa 0.0 l/m 0.8 km/h (0 Bft) O-SO 0.03 h 0.0 UV-I 19 W/m 11.5 C 14.6 C 1.5 km/h (1 Bft)
19.07.2006 07:00 16.2 C 77 % 1020.4 hPa 0.0 l/m 0.3 km/h (0 Bft) O-SO 0.72 h 0.7 UV-I 142 W/m 12.2 C 16.2 C 0.6 km/h (0 Bft)
19.07.2006 08:00 19.1 C 68 % 1020.6 hPa 0.0 l/m 0.3 km/h (0 Bft) O-SO 1.00 h 1.3 UV-I 316 W/m 13.1 C 19.1 C 1.1 km/h (1 Bft)
19.07.2006 09:00 21.6 C 59 % 1021.1 hPa 0.0 l/m 1.8 km/h (1 Bft) W 1.00 h 2.5 UV-I 477 W/m 13.1 C 21.6 C 3.4 km/h (1 Bft)
19.07.2006 10:00 24.5 C 50 % 1020.8 hPa 0.0 l/m 2.7 km/h (1 Bft) W-NW 1.00 h 4.1 UV-I 620 W/m 13.4 C 24.5 C 4.5 km/h (1 Bft)
19.07.2006 11:00 26.8 C 45 % 1020.2 hPa 0.0 l/m 4.2 km/h (1 Bft) W-NW 1.00 h 5.7 UV-I 734 W/m 13.7 C 26.8 C 6.0 km/h (2 Bft)
19.07.2006 12:00 29.2 C 39 % 1019.6 hPa 0.0 l/m 4.3 km/h (1 Bft) W-NW 1.00 h 6.9 UV-I 812 W/m 13.8 C 29.2 C 6.4 km/h (2 Bft)
19.07.2006 13:00 31.2 C 32 % 1018.9 hPa 0.0 l/m 3.9 km/h (1 Bft) N 1.00 h 7.4 UV-I 848 W/m 12.5 C 31.2 C 6.5 km/h (2 Bft)
19.07.2006 14:00 32.5 C 24 % 1018.6 hPa 0.0 l/m 4.7 km/h (1 Bft) O-SO 1.00 h 7.1 UV-I 832 W/m 9.0 C 32.5 C 8.3 km/h (2 Bft)
19.07.2006 15:00 33.1 C 21 % 1018.3 hPa 0.0 l/m 4.7 km/h (1 Bft) O-SO 1.00 h 5.9 UV-I 768 W/m 8.0 C 33.1 C 7.7 km/h (2 Bft)
19.07.2006 16:00 33.7 C 21 % 1018.1 hPa 0.0 l/m 4.2 km/h (1 Bft) O-SO 1.00 h 4.3 UV-I 660 W/m 8.2 C 33.7 C 6.5 km/h (2 Bft)
19.07.2006 17:00 33.9 C 21 % 1017.6 hPa 0.0 l/m 4.4 km/h (1 Bft) O-SO 1.00 h 2.6 UV-I 522 W/m 8.2 C 33.9 C 7.0 km/h (2 Bft)
19.07.2006 18:00 33.3 C 21 % 1017.3 hPa 0.0 l/m 5.1 km/h (1 Bft) O-SO 1.00 h 1.3 UV-I 356 W/m 7.6 C 33.3 C 7.2 km/h (2 Bft)
19.07.2006 19:00 32.6 C 23 % 1016.9 hPa 0.0 l/m 3.4 km/h (1 Bft) O-SO 1.00 h 0.6 UV-I 196 W/m 8.6 C 32.6 C 4.9 km/h (1 Bft)
19.07.2006 20:00 29.9 C 30 % 1017.0 hPa 0.0 l/m 4.1 km/h (1 Bft) O-SO 0.58 h 0.0 UV-I 52 W/m 10.3 C 29.9 C 5.3 km/h (1 Bft)
19.07.2006 21:00 25.5 C 46 % 1017.5 hPa 0.0 l/m 2.5 km/h (1 Bft) O-SO 0.00 h 0.0 UV-I 6 W/m 13.0 C 25.5 C 3.5 km/h (1 Bft)
19.07.2006 22:00 22.9 C 54 % 1018.1 hPa 0.0 l/m 2.6 km/h (1 Bft) O 0.00 h 0.0 UV-I 0 W/m 13.1 C 22.9 C 3.8 km/h (1 Bft)
19.07.2006 23:00 21.0 C 59 % 1018.2 hPa 0.0 l/m 2.1 km/h (1 Bft) O 0.00 h 0.0 UV-I 0 W/m 12.8 C 21.0 C 3.3 km/h (1 Bft)
20.07.2006 00:00 19.9 C 61 % 1018.2 hPa 0.0 l/m 2.0 km/h (1 Bft) O-SO 0.00 h 0.0 UV-I 0 W/m 12.2 C 19.9 C 3.0 km/h (1 Bft)
20.07.2006 01:00 18.9 C 65 % 1018.6 hPa 0.0 l/m 3.8 km/h (1 Bft) O-SO 0.00 h 0.0 UV-I 0 W/m 12.2 C 18.9 C 5.0 km/h (1 Bft)
20.07.2006 02:00 18.0 C 70 % 1018.7 hPa 0.0 l/m 2.9 km/h (1 Bft) O-SO 0.00 h 0.0 UV-I 0 W/m 12.4 C 18.0 C 4.3 km/h (1 Bft)
20.07.2006 03:00 17.3 C 73 % 1018.9 hPa 0.0 l/m 1.5 km/h (1 Bft) O-SO 0.00 h 0.0 UV-I 0 W/m 12.4 C 17.3 C 2.6 km/h (1 Bft)
20.07.2006 04:00 16.8 C 75 % 1019.0 hPa 0.0 l/m 3.0 km/h (1 Bft) O-SO 0.00 h 0.0 UV-I 0 W/m 12.4 C 16.8 C 4.1 km/h (1 Bft)
20.07.2006 05:00 16.6 C 77 % 1019.1 hPa 0.0 l/m 0.8 km/h (0 Bft) O-SO 0.00 h 0.0 UV-I 7 W/m 12.5 C 16.6 C 1.5 km/h (1 Bft)
20.07.2006 06:00 16.3 C 80 % 1019.5 hPa 0.0 l/m 0.2 km/h (0 Bft) O-SO 0.05 h 0.0 UV-I 25 W/m 12.8 C 16.3 C 0.6 km/h (0 Bft)
20.07.2006 07:00 17.7 C 78 % 1019.5 hPa 0.0 l/m 0.1 km/h (0 Bft) O-SO 0.63 h 0.6 UV-I 126 W/m 13.8 C 17.7 C 0.4 km/h (0 Bft)
20.07.2006 08:00 20.0 C 71 % 1019.7 hPa 0.0 l/m 0.5 km/h (0 Bft) S-SO 1.00 h 1.2 UV-I 286 W/m 14.5 C 20.0 C 1.6 km/h (1 Bft)
20.07.2006 09:00 22.7 C 64 % 1020.1 hPa 0.0 l/m 1.4 km/h (1 Bft) N-NW 1.00 h 2.5 UV-I 447 W/m 15.6 C 22.7 C 2.9 km/h (1 Bft)
20.07.2006 10:00 26.9 C 49 % 1019.9 hPa 0.0 l/m 3.4 km/h (1 Bft) W 1.00 h 4.2 UV-I 592 W/m 15.0 C 26.9 C 5.5 km/h (1 Bft)
20.07.2006 11:00 29.4 C 38 % 1019.7 hPa 0.0 l/m 7.3 km/h (2 Bft) W-NW 1.00 h 5.9 UV-I 713 W/m 13.4 C 29.4 C 11.1 km/h (2 Bft)
20.07.2006 12:00 30.7 C 34 % 1019.6 hPa 0.0 l/m 7.1 km/h (2 Bft) W-NW 1.00 h 7.2 UV-I 797 W/m 13.2 C 30.7 C 10.7 km/h (2 Bft)
20.07.2006 13:00 32.0 C 33 % 1019.0 hPa 0.0 l/m 5.2 km/h (1 Bft) N-NW 1.00 h 7.4 UV-I 782 W/m 13.4 C 32.0 C 8.2 km/h (2 Bft)
20.07.2006 14:00 32.5 C 33 % 1018.6 hPa 0.0 l/m 5.8 km/h (1 Bft) N 0.83 h 6.4 UV-I 711 W/m 14.2 C 32.5 C 9.0 km/h (2 Bft)
20.07.2006 15:00 33.3 C 32 % 1018.4 hPa 0.0 l/m 5.3 km/h (1 Bft) N-NW 0.88 h 5.2 UV-I 690 W/m 14.2 C 33.3 C 8.5 km/h (2 Bft)
20.07.2006 16:00 33.3 C 31 % 1018.1 hPa 0.0 l/m 5.2 km/h (1 Bft) N-NW 0.67 h 3.6 UV-I 487 W/m 13.8 C 33.3 C 7.7 km/h (2 Bft)
20.07.2006 17:00 33.5 C 30 % 1017.9 hPa 0.0 l/m 7.2 km/h (2 Bft) W-NW 1.00 h 2.5 UV-I 478 W/m 13.6 C 33.5 C 11.0 km/h (2 Bft)
20.07.2006 18:00 33.2 C 28 % 1017.8 hPa 0.0 l/m 9.2 km/h (2 Bft) W-NW 0.98 h 1.3 UV-I 337 W/m 12.4 C 33.2 C 13.6 km/h (3 Bft)
20.07.2006 19:00 32.0 C 27 % 1018.1 hPa 0.0 l/m 8.7 km/h (2 Bft) W-NW 0.75 h 0.6 UV-I 167 W/m 10.7 C 32.0 C 12.5 km/h (3 Bft)
20.07.2006 20:00 30.8 C 30 % 1018.3 hPa 0.0 l/m 4.6 km/h (1 Bft) W-NW 1.00 h 0.0 UV-I 72 W/m 11.0 C 30.8 C 6.7 km/h (2 Bft)
20.07.2006 21:00 27.7 C 42 % 1018.7 hPa 0.0 l/m 5.2 km/h (1 Bft) O-SO 0.08 h 0.0 UV-I 15 W/m 13.4 C 27.7 C 6.3 km/h (2 Bft)
20.07.2006 22:00 26.1 C 48 % 1019.2 hPa 0.0 l/m 3.9 km/h (1 Bft) O-SO 0.00 h 0.0 UV-I 0 W/m 14.3 C 26.1 C 5.1 km/h (1 Bft)
20.07.2006 23:00 24.9 C 55 % 1019.8 hPa 0.0 l/m 3.5 km/h (1 Bft) O-SO 0.00 h 0.0 UV-I 0 W/m 15.1 C 24.9 C 4.9 km/h (1 Bft)
21.07.2006 00:00 22.8 C 66 % 1019.9 hPa 0.0 l/m 1.0 km/h (0 Bft) O-SO 0.00 h 0.0 UV-I 0 W/m 16.0 C 22.8 C 1.8 km/h (1 Bft)
21.07.2006 01:00 21.2 C 71 % 1020.1 hPa 0.0 l/m 1.0 km/h (0 Bft) O-SO 0.00 h 0.0 UV-I 0 W/m 15.8 C 21.2 C 1.7 km/h (1 Bft)
21.07.2006 02:00 20.2 C 75 % 1020.0 hPa 0.0 l/m 1.6 km/h (1 Bft) O-SO 0.00 h 0.0 UV-I 0 W/m 15.7 C 20.2 C 3.0 km/h (1 Bft)
21.07.2006 03:00 19.3 C 79 % 1020.0 hPa 0.0 l/m 1.3 km/h (1 Bft) O-SO 0.00 h 0.0 UV-I 0 W/m 15.6 C 19.3 C 2.0 km/h (1 Bft)
21.07.2006 04:00 18.6 C 82 % 1020.0 hPa 0.0 l/m 1.3 km/h (1 Bft) O-SO 0.00 h 0.0 UV-I 0 W/m 15.6 C 18.6 C 2.2 km/h (1 Bft)
21.07.2006 05:00 18.4 C 83 % 1020.1 hPa 0.0 l/m 0.8 km/h (0 Bft) O-SO 0.00 h 0.0 UV-I 5 W/m 15.6 C 18.4 C 1.5 km/h (1 Bft)
21.07.2006 06:00 18.4 C 85 % 1020.4 hPa 0.0 l/m 0.4 km/h (0 Bft) O-SO 0.02 h 0.0 UV-I 29 W/m 15.8 C 18.4 C 0.9 km/h (0 Bft)
21.07.2006 07:00 19.5 C 82 % 1020.4 hPa 0.0 l/m 0.5 km/h (0 Bft) O-SO 0.65 h 0.6 UV-I 135 W/m 16.4 C 19.5 C 1.0 km/h (0 Bft)
21.07.2006 08:00 22.0 C 74 % 1020.3 hPa 0.0 l/m 0.7 km/h (0 Bft) O-SO 1.00 h 1.1 UV-I 269 W/m 17.0 C 22.0 C 1.4 km/h (1 Bft)
21.07.2006 09:00 24.3 C 64 % 1020.6 hPa 0.0 l/m 1.4 km/h (1 Bft) SO 1.00 h 2.4 UV-I 438 W/m 16.9 C 24.3 C 3.1 km/h (1 Bft)
21.07.2006 10:00 26.6 C 56 % 1020.4 hPa 0.0 l/m 2.2 km/h (1 Bft) SO 1.00 h 4.0 UV-I 586 W/m 16.9 C 26.6 C 4.0 km/h (1 Bft)
21.07.2006 11:00 28.8 C 47 % 1019.9 hPa 0.0 l/m 2.0 km/h (1 Bft) SO 1.00 h 5.8 UV-I 708 W/m 16.5 C 28.8 C 4.0 km/h (1 Bft)
21.07.2006 12:00 30.8 C 41 % 1019.3 hPa 0.0 l/m 2.8 km/h (1 Bft) W-NW 1.00 h 7.0 UV-I 793 W/m 15.9 C 30.8 C 4.7 km/h (1 Bft)
21.07.2006 13:00 32.3 C 35 % 1018.8 hPa 0.0 l/m 3.4 km/h (1 Bft) W-NW 1.00 h 7.4 UV-I 829 W/m 14.8 C 32.3 C 5.6 km/h (1 Bft)
21.07.2006 14:00 33.6 C 32 % 1018.2 hPa 0.0 l/m 4.2 km/h (1 Bft) W-NW 1.00 h 7.0 UV-I 825 W/m 14.6 C 33.6 C 6.1 km/h (2 Bft)
21.07.2006 15:00 33.6 C 29 % 1017.8 hPa 0.0 l/m 3.7 km/h (1 Bft) O-SO 0.77 h 5.3 UV-I 622 W/m 13.3 C 33.6 C 6.6 km/h (2 Bft)
21.07.2006 16:00 32.3 C 32 % 1017.4 hPa 0.0 l/m 6.1 km/h (2 Bft) N 0.10 h 2.1 UV-I 187 W/m 13.3 C 32.3 C 9.6 km/h (2 Bft)
21.07.2006 17:00 30.3 C 43 % 1017.8 hPa 0.0 l/m 6.2 km/h (2 Bft) N 0.33 h 1.8 UV-I 275 W/m 16.1 C 30.3 C 10.1 km/h (2 Bft)
21.07.2006 18:00 29.0 C 46 % 1017.7 hPa 0.0 l/m 2.7 km/h (1 Bft) W 0.18 h 0.9 UV-I 125 W/m 16.2 C 29.0 C 4.7 km/h (1 Bft)
21.07.2006 19:00 29.0 C 45 % 1017.4 hPa 0.0 l/m 4.0 km/h (1 Bft) N 0.67 h 0.6 UV-I 136 W/m 16.0 C 29.0 C 7.9 km/h (2 Bft)
21.07.2006 20:00 28.5 C 50 % 1017.6 hPa 0.0 l/m 1.7 km/h (1 Bft) N-NO 0.07 h 0.0 UV-I 46 W/m 16.9 C 28.5 C 4.0 km/h (1 Bft)
21.07.2006 21:00 27.0 C 56 % 1017.8 hPa 0.0 l/m 1.0 km/h (0 Bft) N-NO 0.07 h 0.0 UV-I 9 W/m 17.5 C 27.0 C 2.3 km/h (1 Bft)
21.07.2006 22:00 25.5 C 63 % 1017.9 hPa 0.0 l/m 0.3 km/h (0 Bft) NO 0.00 h 0.0 UV-I 0 W/m 17.8 C 25.5 C 1.0 km/h (0 Bft)
21.07.2006 23:00 24.2 C 68 % 1017.7 hPa 0.0 l/m 1.1 km/h (1 Bft) O-SO 0.00 h 0.0 UV-I 0 W/m 17.9 C 24.2 C 2.6 km/h (1 Bft)
22.07.2006 00:00 23.6 C 67 % 1017.7 hPa 0.0 l/m 2.1 km/h (1 Bft) O-SO 0.00 h 0.0 UV-I 0 W/m 17.2 C 23.6 C 3.8 km/h (1 Bft)
22.07.2006 01:00 22.8 C 70 % 1017.8 hPa 0.0 l/m 1.0 km/h (0 Bft) O 0.00 h 0.0 UV-I 0 W/m 17.0 C 22.8 C 2.3 km/h (1 Bft)
22.07.2006 02:00 21.6 C 76 % 1017.6 hPa 0.0 l/m 0.4 km/h (0 Bft) O 0.00 h 0.0 UV-I 0 W/m 17.2 C 21.6 C 1.1 km/h (1 Bft)
22.07.2006 03:00 20.6 C 81 % 1017.5 hPa 0.0 l/m 0.0 km/h (0 Bft) N 0.00 h 0.0 UV-I 0 W/m 17.2 C 20.6 C 0.5 km/h (0 Bft)
22.07.2006 04:00 19.5 C 84 % 1017.2 hPa 0.0 l/m 1.4 km/h (1 Bft) O 0.00 h 0.0 UV-I 0 W/m 16.7 C 19.5 C 2.1 km/h (1 Bft)
22.07.2006 05:00 18.6 C 85 % 1016.9 hPa 0.0 l/m 1.7 km/h (1 Bft) SO 0.00 h 0.0 UV-I 5 W/m 16.0 C 18.6 C 2.8 km/h (1 Bft)
22.07.2006 06:00 18.1 C 87 % 1016.8 hPa 0.0 l/m 0.5 km/h (0 Bft) SO 0.00 h 0.0 UV-I 21 W/m 15.9 C 18.1 C 1.3 km/h (1 Bft)
22.07.2006 07:00 19.3 C 84 % 1017.0 hPa 0.0 l/m 0.0 km/h (0 Bft) SO 0.65 h 0.6 UV-I 123 W/m 16.5 C 19.3 C 0.2 km/h (0 Bft)
22.07.2006 08:00 21.4 C 75 % 1016.9 hPa 0.0 l/m 0.8 km/h (0 Bft) SO 1.00 h 1.2 UV-I 286 W/m 16.8 C 21.4 C 2.0 km/h (1 Bft)
22.07.2006 09:00 23.9 C 66 % 1017.0 hPa 0.0 l/m 1.8 km/h (1 Bft) W-NW 0.98 h 2.5 UV-I 432 W/m 17.0 C 23.9 C 3.5 km/h (1 Bft)
22.07.2006 10:00 26.5 C 55 % 1016.8 hPa 0.0 l/m 2.4 km/h (1 Bft) N 1.00 h 4.2 UV-I 592 W/m 16.8 C 26.5 C 4.1 km/h (1 Bft)
22.07.2006 11:00 28.3 C 50 % 1016.4 hPa 0.0 l/m 3.3 km/h (1 Bft) O-SO 1.00 h 6.0 UV-I 709 W/m 16.9 C 28.3 C 5.9 km/h (2 Bft)
22.07.2006 12:00 30.2 C 45 % 1015.9 hPa 0.0 l/m 3.9 km/h (1 Bft) W-NW 1.00 h 7.1 UV-I 782 W/m 17.1 C 30.2 C 6.2 km/h (2 Bft)
22.07.2006 13:00 31.2 C 41 % 1015.4 hPa 0.0 l/m 3.7 km/h (1 Bft) NW 1.00 h 6.8 UV-I 745 W/m 16.4 C 31.2 C 5.9 km/h (2 Bft)
22.07.2006 14:00 32.1 C 41 % 1015.0 hPa 0.0 l/m 7.9 km/h (2 Bft) N-NW 0.68 h 5.2 UV-I 577 W/m 17.0 C 32.1 C 12.2 km/h (2 Bft)
22.07.2006 15:00 28.1 C 51 % 1016.0 hPa 0.0 l/m 16.6 km/h (3 Bft) W-NW 0.00 h 1.4 UV-I 164 W/m 17.0 C 28.1 C 25.1 km/h (4 Bft)
22.07.2006 16:00 29.4 C 49 % 1015.3 hPa 0.0 l/m 10.5 km/h (2 Bft) W-NW 0.98 h 3.8 UV-I 522 W/m 17.5 C 29.4 C 16.9 km/h (3 Bft)
22.07.2006 17:00 30.7 C 40 % 1015.5 hPa 0.0 l/m 17.1 km/h (3 Bft) W-NW 0.92 h 2.7 UV-I 477 W/m 15.4 C 30.7 C 26.3 km/h (4 Bft)
22.07.2006 18:00 29.1 C 44 % 1016.5 hPa 0.0 l/m 9.6 km/h (2 Bft) W-NW 0.23 h 0.9 UV-I 167 W/m 15.4 C 29.1 C 15.4 km/h (3 Bft)
22.07.2006 19:00 28.0 C 47 % 1016.5 hPa 0.0 l/m 4.6 km/h (1 Bft) W-NW 0.43 h 0.6 UV-I 124 W/m 15.7 C 28.0 C 8.6 km/h (2 Bft)
22.07.2006 20:00 26.0 C 53 % 1016.8 hPa 0.0 l/m 4.3 km/h (1 Bft) S-SO 0.07 h 0.0 UV-I 47 W/m 15.6 C 26.0 C 8.2 km/h (2 Bft)
22.07.2006 21:00 24.2 C 58 % 1017.0 hPa 0.0 l/m 3.4 km/h (1 Bft) S-SO 0.05 h 0.0 UV-I 10 W/m 15.3 C 24.2 C 6.1 km/h (2 Bft)
22.07.2006 22:00 23.0 C 64 % 1017.5 hPa 0.0 l/m 0.9 km/h (0 Bft) S-SO 0.00 h 0.0 UV-I 0 W/m 15.7 C 23.0 C 2.4 km/h (1 Bft)
22.07.2006 23:00 22.6 C 68 % 1017.6 hPa 0.0 l/m 2.5 km/h (1 Bft) O-SO 0.00 h 0.0 UV-I 0 W/m 16.2 C 22.6 C 3.8 km/h (1 Bft)
23.07.2006 00:00 22.3 C 69 % 1017.7 hPa 0.0 l/m 2.1 km/h (1 Bft) SO 0.00 h 0.0 UV-I 0 W/m 16.5 C 22.3 C 3.8 km/h (1 Bft)
23.07.2006 01:00 22.0 C 71 % 1017.7 hPa 0.0 l/m 3.0 km/h (1 Bft) O-SO 0.00 h 0.0 UV-I 0 W/m 16.6 C 22.0 C 4.4 km/h (1 Bft)
23.07.2006 02:00 21.4 C 76 % 1017.9 hPa 0.0 l/m 2.1 km/h (1 Bft) O-SO 0.00 h 0.0 UV-I 0 W/m 16.9 C 21.4 C 3.2 km/h (1 Bft)
23.07.2006 03:00 20.5 C 79 % 1018.1 hPa 0.0 l/m 2.5 km/h (1 Bft) O-SO 0.00 h 0.0 UV-I 0 W/m 16.8 C 20.5 C 3.8 km/h (1 Bft)
23.07.2006 04:00 20.0 C 82 % 1017.8 hPa 0.0 l/m 3.4 km/h (1 Bft) SO 0.00 h 0.0 UV-I 0 W/m 16.8 C 20.0 C 4.9 km/h (1 Bft)
23.07.2006 05:00 19.2 C 85 % 1017.8 hPa 0.0 l/m 1.7 km/h (1 Bft) O-SO 0.00 h 0.0 UV-I 0 W/m 16.6 C 19.2 C 2.6 km/h (1 Bft)
23.07.2006 06:00 18.6 C 88 % 1018.1 hPa 0.0 l/m 1.9 km/h (1 Bft) O-SO 0.02 h 0.0 UV-I 29 W/m 16.5 C 18.6 C 2.8 km/h (1 Bft)
23.07.2006 07:00 19.6 C 86 % 1018.3 hPa 0.0 l/m 0.1 km/h (0 Bft) O-SO 0.00 h 0.6 UV-I 83 W/m 17.2 C 19.6 C 0.4 km/h (0 Bft)
23.07.2006 08:00 21.0 C 81 % 1018.7 hPa 0.0 l/m 1.1 km/h (1 Bft) S-SO 0.45 h 1.2 UV-I 213 W/m 17.6 C 21.0 C 2.5 km/h (1 Bft)
23.07.2006 09:00 23.4 C 72 % 1018.7 hPa 0.0 l/m 2.0 km/h (1 Bft) S-SO 0.97 h 2.4 UV-I 426 W/m 18.0 C 23.4 C 4.3 km/h (1 Bft)
23.07.2006 10:00 25.1 C 65 % 1018.8 hPa 0.0 l/m 2.7 km/h (1 Bft) S-SO 0.92 h 4.1 UV-I 581 W/m 18.1 C 25.1 C 5.2 km/h (1 Bft)
23.07.2006 11:00 27.7 C 53 % 1018.5 hPa 0.0 l/m 4.8 km/h (1 Bft) W 0.88 h 6.0 UV-I 678 W/m 17.2 C 27.7 C 7.5 km/h (2 Bft)
23.07.2006 12:00 29.5 C 43 % 1018.3 hPa 0.0 l/m 7.2 km/h (2 Bft) W-NW 1.00 h 7.7 UV-I 814 W/m 15.7 C 29.5 C 11.7 km/h (2 Bft)
23.07.2006 13:00 30.4 C 40 % 1017.9 hPa 0.0 l/m 9.9 km/h (2 Bft) W-NW 1.00 h 8.4 UV-I 846 W/m 15.3 C 30.4 C 14.5 km/h (3 Bft)
23.07.2006 14:00 30.9 C 41 % 1017.7 hPa 0.0 l/m 6.6 km/h (2 Bft) N 0.85 h 7.4 UV-I 825 W/m 16.1 C 30.9 C 11.3 km/h (2 Bft)
23.07.2006 15:00 29.8 C 42 % 1017.4 hPa 0.0 l/m 3.7 km/h (1 Bft) N 0.08 h 4.2 UV-I 301 W/m 15.5 C 29.8 C 6.1 km/h (2 Bft)
23.07.2006 16:00 31.7 C 34 % 1017.0 hPa 0.0 l/m 8.8 km/h (2 Bft) W-NW 0.85 h 4.5 UV-I 645 W/m 14.0 C 31.7 C 13.9 km/h (3 Bft)
23.07.2006 17:00 31.8 C 36 % 1016.9 hPa 0.0 l/m 9.4 km/h (2 Bft) W-NW 0.70 h 2.6 UV-I 485 W/m 14.8 C 31.8 C 14.7 km/h (3 Bft)
23.07.2006 18:00 30.1 C 40 % 1017.3 hPa 0.0 l/m 4.5 km/h (1 Bft) N 0.52 h 1.2 UV-I 268 W/m 15.0 C 30.1 C 8.2 km/h (2 Bft)
23.07.2006 19:00 29.5 C 43 % 1017.2 hPa 0.0 l/m 2.5 km/h (1 Bft) NO 0.77 h 0.6 UV-I 142 W/m 15.6 C 29.5 C 4.5 km/h (1 Bft)
23.07.2006 20:00 27.5 C 51 % 1017.3 hPa 0.0 l/m 5.8 km/h (2 Bft) O-SO 0.65 h 0.0 UV-I 52 W/m 16.6 C 27.5 C 7.5 km/h (2 Bft)
23.07.2006 21:00 26.1 C 56 % 1017.9 hPa 0.0 l/m 0.7 km/h (0 Bft) SO 0.03 h 0.0 UV-I 9 W/m 16.6 C 26.1 C 2.1 km/h (1 Bft)
23.07.2006 22:00 24.8 C 62 % 1018.5 hPa 0.0 l/m 1.3 km/h (1 Bft) O 0.00 h 0.0 UV-I 0 W/m 16.9 C 24.8 C 2.6 km/h (1 Bft)
23.07.2006 23:00 23.2 C 69 % 1018.6 hPa 0.0 l/m 1.0 km/h (0 Bft) O-SO 0.00 h 0.0 UV-I 0 W/m 17.3 C 23.2 C 2.1 km/h (1 Bft)
Min-Datum _ 18.07.06 18.07.06 22.07.06 - 17.07.06 - - - - 18.07.06 18.07.06 17.07.06
_ Min-Zeit 06:33 18:08 14:30 - 00:03 - - - - 18:41 06:33 00:04
Minimum _ 12.6 C 20 % 1014.8 hPa - 0.0 km/h (0 Bft) - - - - 5.9 C 12.6 C 0.0 km/h (0 Bft)
Max-Datum _ 21.07.06 23.07.06 17.07.06 17.07.06 22.07.06 - 17.07.06 23.07.06 23.07.06 22.07.06 21.07.06 22.07.06
_ Max-Zeit 14:54 06:17 00:00 00:00 15:05 - 05:59 13:28 14:39 12:53 14:54 14:56
Maximum _ 34.5 C 89 % 1022.9 hPa 0.0 l/m 33.3 km/h
W-NW (5 Bft)
- 0.02 h 8.5 UV-I 981 W/m 19.5 C 34.5 C 50.5 km/h
N (7 Bft)
Durchschnitt _ 24.4 C 55 % 1019.0 hPa #0.0 l/m 3.5 km/h (1 Bft) O-SO #82:29 h 3.8 UV-I 401 W/m 13.5 C 24.4 C 5.7 km/h (1 Bft)
© Kaiko 2006